createdAt,value
2023-11-16T00:00:00.954Z,101158.31
2023-11-16T00:02:28.479Z,101152.50
2023-11-16T00:04:56.088Z,101141.47
2023-11-16T00:07:25.203Z,101149.38
2023-11-16T00:09:52.110Z,101124.59
2023-11-16T00:12:19.674Z,101158.53
2023-11-16T00:14:46.407Z,101126.91
2023-11-16T00:17:13.110Z,101147.47
2023-11-16T00:19:42.955Z,101148.69
2023-11-16T00:22:10.790Z,101104.22
2023-11-16T00:24:37.573Z,101143.16
2023-11-16T00:27:04.960Z,101158.19
2023-11-16T00:29:31.810Z,101154.81
2023-11-16T00:32:00.024Z,101162.66
2023-11-16T00:34:27.086Z,101163.72
2023-11-16T00:36:53.758Z,101128.22
2023-11-16T00:39:20.977Z,101167.72
2023-11-16T00:41:48.617Z,101157.00
2023-11-16T00:44:21.287Z,101176.75
2023-11-16T00:46:50.569Z,101183.84
2023-11-16T00:49:17.656Z,101167.09
2023-11-16T00:51:44.286Z,101209.72
2023-11-16T00:54:14.150Z,101198.28
2023-11-16T00:56:41.167Z,101179.16
2023-11-16T00:59:08.121Z,101204.28
2023-11-16T01:01:35.262Z,101220.78
2023-11-16T01:04:02.432Z,101225.44
2023-11-16T01:06:29.537Z,101230.75
2023-11-16T01:08:57.539Z,101225.19
2023-11-16T01:11:30.680Z,101230.47
2023-11-16T01:13:58.999Z,101233.38
2023-11-16T01:16:36.092Z,101243.50
2023-11-16T01:19:02.922Z,101252.03
2023-11-16T01:21:31.008Z,101271.66
2023-11-16T01:24:06.578Z,101270.81
2023-11-16T01:26:34.337Z,101274.88
2023-11-16T01:29:06.310Z,101277.69
2023-11-16T01:31:33.024Z,101273.44
2023-11-16T01:33:59.879Z,101227.31
2023-11-16T01:36:28.129Z,101290.91
2023-11-16T01:38:54.904Z,101302.66
2023-11-16T01:41:21.735Z,101302.06
2023-11-16T01:43:48.737Z,101316.25
2023-11-16T01:46:16.470Z,101326.22
2023-11-16T01:48:45.002Z,101330.91
2023-11-16T01:51:14.472Z,101301.94
2023-11-16T01:53:44.861Z,101339.41
2023-11-16T01:56:13.419Z,101264.91
2023-11-16T01:58:40.875Z,101341.41
2023-11-16T02:01:07.966Z,101346.31
2023-11-16T02:03:35.260Z,101350.34
2023-11-16T02:06:05.102Z,101356.69
2023-11-16T02:08:32.211Z,101364.97
2023-11-16T02:11:00.442Z,101359.91
2023-11-16T02:13:27.229Z,101354.31
2023-11-16T02:15:57.605Z,101367.34
2023-11-16T02:18:27.573Z,101379.06
2023-11-16T02:20:56.527Z,101374.13
2023-11-16T02:23:23.572Z,101378.16
2023-11-16T02:25:51.918Z,101353.88
2023-11-16T02:28:22.289Z,101380.94
2023-11-16T02:30:49.637Z,101371.00
2023-11-16T02:33:16.624Z,101382.00
2023-11-16T02:35:43.708Z,101365.31
2023-11-16T02:38:18.455Z,101356.00
2023-11-16T02:40:46.187Z,101356.00
2023-11-16T02:43:12.853Z,101385.19
2023-11-16T02:45:40.033Z,101362.75
2023-11-16T02:48:08.134Z,101388.53
2023-11-16T02:50:35.813Z,101359.78
2023-11-16T02:53:04.285Z,101329.16
2023-11-16T02:55:31.077Z,101389.16
2023-11-16T02:57:59.185Z,101380.59
2023-11-16T03:00:26.668Z,101404.78
2023-11-16T03:02:55.441Z,101413.03
2023-11-16T03:05:24.821Z,101416.00
2023-11-16T03:07:51.933Z,101418.06
2023-11-16T03:10:19.021Z,101408.34
2023-11-16T03:12:47.085Z,101412.16
2023-11-16T03:15:14.659Z,101427.13
2023-11-16T03:17:45.281Z,101412.66
2023-11-16T03:20:18.003Z,101411.25
2023-11-16T03:22:45.998Z,101407.66
2023-11-16T03:25:12.863Z,101424.25
2023-11-16T03:27:39.742Z,101403.00
2023-11-16T03:30:07.337Z,101423.72
2023-11-16T03:32:34.465Z,101423.50
2023-11-16T03:35:01.203Z,101427.66
2023-11-16T03:37:27.999Z,101419.91
2023-11-16T03:39:54.814Z,101407.66
2023-11-16T03:42:21.708Z,101405.44
2023-11-16T03:44:51.071Z,101431.75
2023-11-16T03:47:17.910Z,101423.59
2023-11-16T03:49:44.715Z,101399.06
2023-11-16T03:52:11.504Z,101413.56
2023-11-16T03:54:38.220Z,101377.28
2023-11-16T03:57:05.481Z,101422.44
2023-11-16T03:59:32.306Z,101418.81
2023-11-16T04:01:58.975Z,101422.63
2023-11-16T04:04:25.689Z,101419.63
2023-11-16T04:06:52.509Z,101430.19
2023-11-16T04:09:19.274Z,101400.97
2023-11-16T04:11:46.116Z,101428.53
2023-11-16T04:14:16.563Z,101375.56
2023-11-16T04:16:43.834Z,101444.00
2023-11-16T04:19:11.357Z,101435.94
2023-11-16T04:21:43.420Z,101426.06
2023-11-16T04:24:12.320Z,101433.13
2023-11-16T04:26:39.603Z,101431.84
2023-11-16T04:29:07.717Z,101448.09
2023-11-16T04:31:35.653Z,101410.22
2023-11-16T04:34:02.958Z,101449.34
2023-11-16T04:36:32.995Z,101431.63
2023-11-16T04:39:01.293Z,101376.09
2023-11-16T04:41:29.370Z,101442.47
2023-11-16T04:43:58.868Z,101443.50
2023-11-16T04:46:28.861Z,101449.75
2023-11-16T04:48:56.626Z,101462.16
2023-11-16T04:51:25.703Z,101432.59
2023-11-16T04:53:52.880Z,101452.00
2023-11-16T04:56:19.661Z,101442.56
2023-11-16T04:58:47.241Z,101444.75
2023-11-16T05:01:18.027Z,101452.16
2023-11-16T05:03:49.038Z,101427.63
2023-11-16T05:06:16.571Z,101445.97
2023-11-16T05:08:43.880Z,101454.41
2023-11-16T05:11:10.687Z,101468.25
2023-11-16T05:13:37.272Z,101458.56
2023-11-16T05:16:09.862Z,101432.59
2023-11-16T05:18:36.727Z,101466.28
2023-11-16T05:21:05.498Z,101461.00
2023-11-16T05:23:32.296Z,101468.72
2023-11-16T05:25:59.060Z,101466.09
2023-11-16T05:28:27.202Z,101461.75
2023-11-16T05:30:54.192Z,101461.59
2023-11-16T05:33:24.013Z,101459.88
2023-11-16T05:35:54.987Z,101456.69
2023-11-16T05:38:23.448Z,101450.94
2023-11-16T05:40:53.195Z,101464.22
2023-11-16T05:43:20.931Z,101461.94
2023-11-16T05:45:47.637Z,101458.00
2023-11-16T05:48:15.694Z,101443.03
2023-11-16T05:50:43.912Z,101410.97
2023-11-16T05:53:11.434Z,101435.69
2023-11-16T05:55:38.429Z,101453.88
2023-11-16T05:58:07.136Z,101461.47
2023-11-16T06:00:34.921Z,101425.25
2023-11-16T06:03:01.955Z,101453.09
2023-11-16T06:05:29.544Z,101469.13
2023-11-16T06:07:56.612Z,101439.66
2023-11-16T06:10:26.115Z,101467.22
2023-11-16T06:12:56.610Z,101461.22
2023-11-16T06:15:25.664Z,101462.53
2023-11-16T06:17:56.099Z,101460.84
2023-11-16T06:20:23.028Z,101460.44
2023-11-16T06:22:51.970Z,101462.09
2023-11-16T06:25:19.365Z,101453.84
2023-11-16T06:27:48.234Z,101473.84
2023-11-16T06:30:15.751Z,101463.97
2023-11-16T06:32:45.814Z,101468.31
2023-11-16T06:35:12.862Z,101472.22
2023-11-16T06:37:39.887Z,101458.31
2023-11-16T06:40:10.987Z,101455.94
2023-11-16T06:42:38.907Z,101451.97
2023-11-16T06:45:07.042Z,101473.44
2023-11-16T06:47:35.182Z,101441.31
2023-11-16T06:50:04.647Z,101475.31
2023-11-16T06:52:31.773Z,101455.81
2023-11-16T06:54:58.722Z,101463.63
2023-11-16T06:57:28.057Z,101465.69
2023-11-16T06:59:55.162Z,101454.63
2023-11-16T07:02:23.436Z,101463.28
2023-11-16T07:04:50.388Z,101481.25
2023-11-16T07:07:17.964Z,101481.25
2023-11-16T07:09:48.441Z,101480.59
2023-11-16T07:12:16.587Z,101458.81
2023-11-16T07:14:51.344Z,101469.59
2023-11-16T07:17:21.337Z,101442.63
2023-11-16T07:19:49.578Z,101480.84
2023-11-16T07:22:16.223Z,101489.59
2023-11-16T07:24:45.650Z,101486.09
2023-11-16T07:27:13.668Z,101472.03
2023-11-16T07:29:44.341Z,101483.13
2023-11-16T07:32:12.590Z,101465.84
2023-11-16T07:34:41.022Z,101458.22
2023-11-16T07:37:08.424Z,101408.53
2023-11-16T07:39:35.596Z,101441.41
2023-11-16T07:42:03.572Z,101415.91
2023-11-16T07:44:30.298Z,101417.44
2023-11-16T07:46:57.324Z,101423.34
2023-11-16T07:49:24.483Z,101436.16
2023-11-16T07:51:53.075Z,101445.50
2023-11-16T07:54:20.166Z,101428.09
2023-11-16T07:56:56.656Z,101435.47
2023-11-16T07:59:32.582Z,101411.38
2023-11-16T08:02:02.709Z,101430.00
2023-11-16T08:04:32.814Z,101433.88
2023-11-16T08:07:01.415Z,101436.22
2023-11-16T08:09:28.425Z,101402.00
2023-11-16T08:11:55.510Z,101442.69
2023-11-16T08:14:28.134Z,101438.44
2023-11-16T08:17:00.502Z,101442.31
2023-11-16T08:19:27.863Z,101447.41
2023-11-16T08:21:58.700Z,101435.97
2023-11-16T08:24:27.822Z,101412.66
2023-11-16T08:26:57.728Z,101425.81
2023-11-16T08:29:25.101Z,101434.09
2023-11-16T08:31:58.465Z,101451.22
2023-11-16T08:34:28.645Z,101444.91
2023-11-16T08:36:56.559Z,101440.56
2023-11-16T08:39:23.394Z,101435.44
2023-11-16T08:41:50.202Z,101447.47
2023-11-16T08:44:19.760Z,101403.25
2023-11-16T08:46:54.220Z,101441.16
2023-11-16T08:49:24.294Z,101437.22
2023-11-16T08:52:00.958Z,101442.09
2023-11-16T08:54:29.769Z,101440.88
2023-11-16T08:56:58.978Z,101450.00
2023-11-16T08:59:26.462Z,101406.47
2023-11-16T09:01:53.562Z,101443.72
2023-11-16T09:04:22.285Z,101385.78
2023-11-16T09:06:51.833Z,101452.00
2023-11-16T09:09:37.773Z,101448.78
2023-11-16T09:12:14.626Z,101441.06
2023-11-16T09:14:42.856Z,101438.63
2023-11-16T09:17:18.697Z,101448.97
2023-11-16T09:19:45.821Z,101427.97
2023-11-16T09:22:12.967Z,101439.94
2023-11-16T09:24:41.292Z,101442.06
2023-11-16T09:27:08.255Z,101439.31
2023-11-16T09:29:40.613Z,101437.13
2023-11-16T09:32:12.335Z,101434.22
2023-11-16T09:34:40.752Z,101455.09
2023-11-16T09:37:08.298Z,101440.94
2023-11-16T09:39:35.418Z,101444.75
2023-11-16T09:42:09.059Z,101448.59
2023-11-16T09:44:40.775Z,101439.22
2023-11-16T09:47:26.860Z,101450.94
2023-11-16T09:49:57.924Z,101460.25
2023-11-16T09:52:27.464Z,101431.28
2023-11-16T09:55:01.660Z,101448.75
2023-11-16T09:57:36.140Z,101459.25
2023-11-16T10:00:17.278Z,101452.28
2023-11-16T10:02:47.059Z,101445.09
2023-11-16T10:05:45.795Z,101456.72
2023-11-16T10:08:16.789Z,101458.22
2023-11-16T10:10:52.929Z,101460.66
2023-11-16T10:13:19.724Z,101441.63
2023-11-16T10:15:49.302Z,101452.31
2023-11-16T10:18:16.306Z,101446.81
2023-11-16T10:20:44.338Z,101417.25
2023-11-16T10:23:13.129Z,101436.69
2023-11-16T10:25:40.918Z,101434.59
2023-11-16T10:28:24.192Z,101429.53
2023-11-16T10:30:55.435Z,101416.94
2023-11-16T10:33:24.560Z,101393.50
2023-11-16T10:35:53.622Z,101404.91
2023-11-16T10:38:24.091Z,101406.69
2023-11-16T10:40:54.597Z,101409.22
2023-11-16T10:43:30.829Z,101388.34
2023-11-16T10:46:04.284Z,101392.38
2023-11-16T10:48:31.368Z,101379.91
2023-11-16T10:51:00.429Z,101377.97
2023-11-16T10:53:39.613Z,101368.25
2023-11-16T10:56:09.843Z,101358.53
2023-11-16T10:58:40.918Z,101338.69
2023-11-16T11:01:15.521Z,101369.94
2023-11-16T11:03:48.991Z,101358.50
2023-11-16T11:06:20.458Z,101362.31
2023-11-16T11:08:49.710Z,101365.69
2023-11-16T11:11:26.053Z,101350.28
2023-11-16T11:13:57.870Z,101368.22
2023-11-16T11:16:28.809Z,101376.25
2023-11-16T11:18:56.241Z,101368.22
2023-11-16T11:21:24.959Z,101348.78
2023-11-16T11:24:17.915Z,101362.31
2023-11-16T11:26:50.480Z,101364.84
2023-11-16T11:29:18.458Z,101367.59
2023-11-16T11:32:14.461Z,101354.28
2023-11-16T11:34:41.466Z,101341.16
2023-11-16T11:37:15.355Z,101339.16
2023-11-16T11:39:47.430Z,101311.50
2023-11-16T11:42:18.448Z,101341.66
2023-11-16T11:44:52.816Z,101345.53
2023-11-16T11:47:25.534Z,101337.50
2023-11-16T11:49:52.656Z,101327.16
2023-11-16T11:52:20.427Z,101327.78
2023-11-16T11:54:47.228Z,101327.69
2023-11-16T11:57:18.033Z,101296.94
2023-11-16T11:59:50.465Z,101299.00
2023-11-16T12:02:18.954Z,101306.63
2023-11-16T12:04:45.797Z,101306.00
2023-11-16T12:07:13.615Z,101303.47
2023-11-16T12:09:45.367Z,101312.97
2023-11-16T12:12:12.495Z,101304.44
2023-11-16T12:14:49.137Z,101284.50
2023-11-16T12:17:22.209Z,101270.06
2023-11-16T12:19:50.218Z,101295.13
2023-11-16T12:22:17.558Z,101266.97
2023-11-16T12:24:48.009Z,101302.66
2023-11-16T12:27:18.184Z,101301.78
2023-11-16T12:30:00.544Z,101288.06
2023-11-16T12:32:28.147Z,101277.81
2023-11-16T12:34:55.467Z,101301.94
2023-11-16T12:37:23.370Z,101294.75
2023-11-16T12:39:52.035Z,101292.38
2023-11-16T12:42:24.231Z,101291.94
2023-11-16T12:44:51.887Z,101280.63
2023-11-16T12:47:22.450Z,101291.75
2023-11-16T12:49:53.555Z,101262.38
2023-11-16T12:52:21.680Z,101265.66
2023-11-16T12:54:48.473Z,101265.81
2023-11-16T12:57:15.372Z,101270.16
2023-11-16T12:59:42.138Z,101268.97
2023-11-16T13:04:39.809Z,101264.41
2023-11-16T13:07:06.929Z,101248.78
2023-11-16T13:09:33.607Z,101250.69
2023-11-16T13:12:08.289Z,101256.81
2023-11-16T13:14:44.010Z,101242.88
2023-11-16T13:17:11.054Z,101229.25
2023-11-16T13:19:38.269Z,101229.75
2023-11-16T13:22:05.491Z,101240.84
2023-11-16T13:24:32.195Z,101238.19
2023-11-16T13:26:58.917Z,101233.13
2023-11-16T13:29:25.717Z,101234.81
2023-11-16T13:31:52.427Z,101243.34
2023-11-16T13:34:19.103Z,101248.53
2023-11-16T13:36:47.100Z,101237.72
2023-11-16T13:39:15.707Z,101213.75
2023-11-16T13:41:42.583Z,101242.78
2023-11-16T13:44:09.719Z,101238.34
2023-11-16T13:46:37.450Z,101233.91
2023-11-16T13:49:05.094Z,101216.56
2023-11-16T13:51:32.242Z,101208.88
2023-11-16T13:53:58.913Z,101229.06
2023-11-16T13:56:25.777Z,101234.25
2023-11-16T13:58:55.970Z,101221.16
2023-11-16T14:01:23.770Z,101232.22
2023-11-16T14:03:51.516Z,101200.69
2023-11-16T14:06:18.489Z,101216.44
2023-11-16T14:08:45.103Z,101221.38
2023-11-16T14:11:14.171Z,101224.75
2023-11-16T14:13:45.219Z,101228.72
2023-11-16T14:16:14.489Z,101218.25
2023-11-16T14:18:42.363Z,101141.19
2023-11-16T14:21:09.353Z,101228.69
2023-11-16T14:23:39.574Z,101229.03
2023-11-16T14:26:09.734Z,101227.63
2023-11-16T14:28:37.084Z,101223.16
2023-11-16T14:31:07.244Z,101215.56
2023-11-16T14:33:35.065Z,101225.94
2023-11-16T14:36:02.243Z,101202.31
2023-11-16T14:38:28.912Z,101226.00
2023-11-16T14:40:55.607Z,101224.56
2023-11-16T14:43:22.618Z,101215.97
2023-11-16T14:45:49.347Z,101205.59
2023-11-16T14:48:16.330Z,101226.50
2023-11-16T14:50:43.286Z,101235.16
2023-11-16T14:53:11.687Z,101195.81
2023-11-16T14:55:39.936Z,101238.56
2023-11-16T14:58:06.749Z,101216.25
2023-11-16T15:00:33.710Z,101227.69
2023-11-16T15:03:01.099Z,101217.97
2023-11-16T15:05:35.258Z,101232.78
2023-11-16T15:08:05.180Z,101225.72
2023-11-16T15:10:32.121Z,101201.56
2023-11-16T15:12:58.848Z,101225.84
2023-11-16T15:15:25.652Z,101239.03
2023-11-16T15:17:52.648Z,101232.00
2023-11-16T15:20:26.518Z,101238.44
2023-11-16T15:22:57.086Z,101239.63
2023-11-16T15:25:24.098Z,101210.09
2023-11-16T15:27:51.280Z,101241.13
2023-11-16T15:30:18.408Z,101248.31
2023-11-16T15:32:45.162Z,101248.75
2023-11-16T15:35:12.890Z,101242.41
2023-11-16T15:37:39.712Z,101259.72
2023-11-16T15:40:07.151Z,101250.00
2023-11-16T15:42:34.433Z,101226.97
2023-11-16T15:45:02.011Z,101226.88
2023-11-16T15:47:28.938Z,101270.47
2023-11-16T15:49:55.780Z,101262.41
2023-11-16T15:52:24.265Z,101235.81
2023-11-16T15:54:51.875Z,101262.28
2023-11-16T15:57:26.672Z,101275.59
2023-11-16T15:59:58.934Z,101246.19
2023-11-16T16:02:29.921Z,101212.28
2023-11-16T16:04:58.240Z,101214.16
2023-11-16T16:07:25.101Z,101253.22
2023-11-16T16:09:52.749Z,101270.31
2023-11-16T16:12:19.753Z,101261.53
2023-11-16T16:14:46.968Z,101276.00
2023-11-16T16:17:15.073Z,101241.44
2023-11-16T16:19:42.288Z,101261.19
2023-11-16T16:22:09.363Z,101260.78
2023-11-16T16:24:36.737Z,101257.25
2023-11-16T16:27:08.552Z,101257.44
2023-11-16T16:29:37.153Z,101267.78
2023-11-16T16:32:05.514Z,101270.34
2023-11-16T16:34:32.365Z,101268.72
2023-11-16T16:36:59.207Z,101262.94
2023-11-16T16:39:26.422Z,101287.06
2023-11-16T16:41:54.673Z,101284.94
2023-11-16T16:44:21.626Z,101281.53
2023-11-16T16:46:49.183Z,101261.44
2023-11-16T16:49:16.499Z,101282.97
2023-11-16T16:51:44.917Z,101255.28
2023-11-16T16:54:14.972Z,101296.03
2023-11-16T16:56:43.244Z,101298.59
2023-11-16T16:59:10.520Z,101277.47
2023-11-16T17:01:38.408Z,101295.41
2023-11-16T17:04:07.260Z,101285.34
2023-11-16T17:06:34.380Z,101303.75
2023-11-16T17:09:01.764Z,101310.72
2023-11-16T17:11:28.494Z,101307.16
2023-11-16T17:13:56.643Z,101285.44
2023-11-16T17:16:23.795Z,101301.69
2023-11-16T17:18:51.697Z,101320.50
2023-11-16T17:21:22.393Z,101327.25
2023-11-16T17:23:52.050Z,101319.47
2023-11-16T17:26:20.779Z,101317.09
2023-11-16T17:28:48.873Z,101308.66
2023-11-16T17:31:16.291Z,101324.25
2023-11-16T17:33:43.096Z,101305.84
2023-11-16T17:36:10.059Z,101310.00
2023-11-16T17:38:37.078Z,101308.78
2023-11-16T17:41:06.343Z,101330.66
2023-11-16T17:43:39.346Z,101318.06
2023-11-16T17:46:07.815Z,101339.72
2023-11-16T17:48:34.903Z,101302.75
2023-11-16T17:51:03.514Z,101332.16
2023-11-16T17:53:30.614Z,101304.63
2023-11-16T17:55:57.937Z,101323.53
2023-11-16T17:58:25.649Z,101347.41
2023-11-16T18:00:53.877Z,101339.97
2023-11-16T18:03:20.748Z,101350.34
2023-11-16T18:05:47.504Z,101335.09
2023-11-16T18:08:14.261Z,101348.91
2023-11-16T18:10:45.458Z,101351.66
2023-11-16T18:13:17.966Z,101293.75
2023-11-16T18:15:45.223Z,101359.81
2023-11-16T18:18:12.382Z,101337.97
2023-11-16T18:20:40.446Z,101341.63
2023-11-16T18:23:09.444Z,101342.66
2023-11-16T18:25:41.652Z,101377.00
2023-11-16T18:28:14.482Z,101377.09
2023-11-16T18:30:44.132Z,101385.00
2023-11-16T18:33:11.636Z,101378.03
2023-11-16T18:35:40.825Z,101362.69
2023-11-16T18:38:12.500Z,101362.38
2023-11-16T18:40:43.438Z,101385.50
2023-11-16T18:43:12.322Z,101383.97
2023-11-16T18:45:40.000Z,101345.03
2023-11-16T18:48:13.923Z,101374.84
2023-11-16T18:50:43.471Z,101379.25
2023-11-16T18:53:11.197Z,101381.16
2023-11-16T18:55:38.454Z,101320.38
2023-11-16T18:58:08.050Z,101352.88
2023-11-16T19:00:35.037Z,101385.25
2023-11-16T19:03:15.362Z,101388.81
2023-11-16T19:05:43.838Z,101382.41
2023-11-16T19:08:12.594Z,101393.66
2023-11-16T19:10:42.497Z,101363.91
2023-11-16T19:13:13.101Z,101356.59
2023-11-16T19:15:41.405Z,101393.16
2023-11-16T19:18:08.432Z,101379.88
2023-11-16T19:20:37.833Z,101390.97
2023-11-16T19:23:08.743Z,101393.59
2023-11-16T19:25:38.795Z,101394.53
2023-11-16T19:28:07.884Z,101399.06
2023-11-16T19:30:35.030Z,101385.66
2023-11-16T19:33:02.983Z,101367.03
2023-11-16T19:35:29.713Z,101372.09
2023-11-16T19:37:56.410Z,101397.88
2023-11-16T19:40:33.617Z,101390.25
2023-11-16T19:43:07.831Z,101401.28
2023-11-16T19:45:37.794Z,101397.03
2023-11-16T19:48:06.547Z,101399.72
2023-11-16T19:50:39.574Z,101400.66
2023-11-16T19:53:07.410Z,101370.25
2023-11-16T19:55:34.579Z,101375.44
2023-11-16T19:58:01.391Z,101371.38
2023-11-16T20:00:28.197Z,101369.91
2023-11-16T20:02:55.237Z,101390.28
2023-11-16T20:05:22.301Z,101387.03
2023-11-16T20:07:49.088Z,101382.97
2023-11-16T20:10:16.739Z,101379.44
2023-11-16T20:12:44.323Z,101394.06
2023-11-16T20:15:14.176Z,101373.06
2023-11-16T20:17:46.388Z,101387.38
2023-11-16T20:20:16.868Z,101393.47
2023-11-16T20:22:48.100Z,101382.47
2023-11-16T20:25:18.411Z,101384.50
2023-11-16T20:27:45.383Z,101399.16
2023-11-16T20:30:12.871Z,101355.19
2023-11-16T20:32:40.520Z,101380.69
2023-11-16T20:35:12.173Z,101402.91
2023-11-16T20:37:45.073Z,101375.69
2023-11-16T20:40:18.758Z,101317.22
2023-11-16T20:42:54.948Z,101388.41
2023-11-16T20:45:21.726Z,101378.56
2023-11-16T20:47:48.635Z,101375.69
2023-11-16T20:50:16.630Z,101375.00
2023-11-16T20:52:44.800Z,101397.03
2023-11-16T20:55:12.024Z,101384.44
2023-11-16T20:57:40.211Z,101385.16
2023-11-16T21:00:13.118Z,101350.84
2023-11-16T21:02:43.635Z,101384.84
2023-11-16T21:05:11.256Z,101405.25
2023-11-16T21:07:38.174Z,101394.16
2023-11-16T21:10:05.549Z,101400.25
2023-11-16T21:12:32.669Z,101336.69
2023-11-16T21:14:59.742Z,101382.00
2023-11-16T21:17:28.733Z,101391.25
2023-11-16T21:19:55.518Z,101375.97
2023-11-16T21:22:22.250Z,101391.31
2023-11-16T21:24:49.055Z,101342.16
2023-11-16T21:27:15.797Z,101389.88
2023-11-16T21:29:43.841Z,101391.66
2023-11-16T21:32:11.637Z,101385.97
2023-11-16T21:34:44.433Z,101402.56
2023-11-16T21:37:11.420Z,101404.97
2023-11-16T21:39:38.573Z,101403.50
2023-11-16T21:42:06.529Z,101407.16
2023-11-16T21:44:33.832Z,101422.81
2023-11-16T21:47:01.767Z,101417.97
2023-11-16T21:49:28.922Z,101430.06
2023-11-16T21:51:56.694Z,101409.28
2023-11-16T21:54:23.683Z,101442.00
2023-11-16T21:56:51.019Z,101439.97
2023-11-16T21:59:20.750Z,101436.03
2023-11-16T22:01:50.861Z,101413.22
2023-11-16T22:04:18.334Z,101447.38
2023-11-16T22:06:46.284Z,101429.03
2023-11-16T22:09:15.141Z,101451.09
2023-11-16T22:11:42.256Z,101421.47
2023-11-16T22:14:11.537Z,101446.31
2023-11-16T22:16:39.037Z,101446.47
2023-11-16T22:19:06.126Z,101436.28
2023-11-16T22:21:34.971Z,101449.69
2023-11-16T22:24:01.947Z,101441.38
2023-11-16T22:26:30.550Z,101442.22
2023-11-16T22:28:57.755Z,101434.91
2023-11-16T22:31:24.748Z,101437.59
2023-11-16T22:33:53.698Z,101456.28
2023-11-16T22:36:20.574Z,101462.59
2023-11-16T22:38:47.379Z,101469.53
2023-11-16T22:41:14.353Z,101463.97
2023-11-16T22:43:41.981Z,101479.31
2023-11-16T22:46:09.007Z,101475.31
2023-11-16T22:48:35.974Z,101471.47
2023-11-16T22:51:02.806Z,101488.59
2023-11-16T22:53:29.728Z,101482.09
2023-11-16T22:55:56.638Z,101478.91
2023-11-16T22:58:23.314Z,101502.13
2023-11-16T23:00:50.934Z,101493.50
2023-11-16T23:03:18.562Z,101509.09
2023-11-16T23:05:49.024Z,101501.53
2023-11-16T23:08:17.884Z,101512.75
2023-11-16T23:10:44.688Z,101504.28
2023-11-16T23:13:13.463Z,101501.34
2023-11-16T23:15:41.168Z,101447.13
2023-11-16T23:18:09.764Z,101519.31
2023-11-16T23:20:37.472Z,101511.97
2023-11-16T23:23:06.224Z,101523.06
2023-11-16T23:25:34.315Z,101523.97
2023-11-16T23:28:01.182Z,101525.91
2023-11-16T23:30:28.837Z,101539.88
2023-11-16T23:32:56.127Z,101538.16
2023-11-16T23:35:24.738Z,101503.47
2023-11-16T23:37:51.939Z,101489.94
2023-11-16T23:40:19.732Z,101487.78
2023-11-16T23:42:47.465Z,101543.84
2023-11-16T23:45:16.106Z,101524.44
2023-11-16T23:47:43.328Z,101520.56
2023-11-16T23:50:10.717Z,101544.41
2023-11-16T23:52:37.732Z,101556.44
2023-11-16T23:55:04.885Z,101549.94
2023-11-16T23:57:32.536Z,101525.22
2023-11-16T23:59:59.306Z,101557.66
